sensor_id;sensor_type;location;lat;lon;timestamp;P1;durP1;ratioP1;P2;durP2;ratioP2
18752;SDS011;9505;50.882;5.350;2022-12-29T00:01:33;10.80;;;2.10;;
18752;SDS011;9505;50.882;5.350;2022-12-29T00:03:59;7.63;;;2.25;;
18752;SDS011;9505;50.882;5.350;2022-12-29T00:06:25;11.60;;;2.22;;
18752;SDS011;9505;50.882;5.350;2022-12-29T00:08:52;13.15;;;2.13;;
18752;SDS011;9505;50.882;5.350;2022-12-29T00:11:19;14.60;;;2.00;;
18752;SDS011;9505;50.882;5.350;2022-12-29T00:13:47;11.95;;;2.10;;
18752;SDS011;9505;50.882;5.350;2022-12-29T00:16:31;10.95;;;1.63;;
18752;SDS011;9505;50.882;5.350;2022-12-29T00:18:58;7.78;;;1.40;;
18752;SDS011;9505;50.882;5.350;2022-12-29T00:21:24;17.30;;;2.28;;
18752;SDS011;9505;50.882;5.350;2022-12-29T00:24:12;17.30;;;3.22;;
18752;SDS011;9505;50.882;5.350;2022-12-29T00:29:46;10.95;;;1.80;;
18752;SDS011;9505;50.882;5.350;2022-12-29T00:32:31;10.30;;;1.58;;
18752;SDS011;9505;50.882;5.350;2022-12-29T00:35:23;12.77;;;1.83;;
18752;SDS011;9505;50.882;5.350;2022-12-29T00:37:59;9.35;;;1.48;;
18752;SDS011;9505;50.882;5.350;2022-12-29T00:40:46;13.95;;;2.20;;
18752;SDS011;9505;50.882;5.350;2022-12-29T00:43:30;9.60;;;1.67;;
18752;SDS011;9505;50.882;5.350;2022-12-29T00:46:14;7.72;;;1.45;;
18752;SDS011;9505;50.882;5.350;2022-12-29T00:48:40;9.77;;;1.55;;
18752;SDS011;9505;50.882;5.350;2022-12-29T00:51:24;12.98;;;2.63;;
18752;SDS011;9505;50.882;5.350;2022-12-29T00:53:50;8.82;;;1.38;;
18752;SDS011;9505;50.882;5.350;2022-12-29T00:56:15;11.90;;;1.63;;
18752;SDS011;9505;50.882;5.350;2022-12-29T00:58:41;10.13;;;1.58;;
18752;SDS011;9505;50.882;5.350;2022-12-29T01:01:07;9.93;;;1.42;;
18752;SDS011;9505;50.882;5.350;2022-12-29T01:03:34;2.08;;;0.80;;
18752;SDS011;9505;50.882;5.350;2022-12-29T01:06:01;14.77;;;1.63;;
18752;SDS011;9505;50.882;5.350;2022-12-29T01:08:28;10.88;;;1.48;;
18752;SDS011;9505;50.882;5.350;2022-12-29T01:10:58;12.32;;;1.60;;
18752;SDS011;9505;50.882;5.350;2022-12-29T01:13:34;8.18;;;1.30;;
18752;SDS011;9505;50.882;5.350;2022-12-29T01:16:00;14.13;;;1.35;;
18752;SDS011;9505;50.882;5.350;2022-12-29T01:18:27;11.88;;;1.90;;
18752;SDS011;9505;50.882;5.350;2022-12-29T01:21:05;12.55;;;1.77;;
18752;SDS011;9505;50.882;5.350;2022-12-29T01:23:31;12.27;;;1.83;;
18752;SDS011;9505;50.882;5.350;2022-12-29T01:25:57;10.05;;;1.52;;
18752;SDS011;9505;50.882;5.350;2022-12-29T01:28:37;16.23;;;2.35;;
18752;SDS011;9505;50.882;5.350;2022-12-29T01:31:07;11.27;;;1.90;;
18752;SDS011;9505;50.882;5.350;2022-12-29T01:33:36;14.95;;;2.22;;
18752;SDS011;9505;50.882;5.350;2022-12-29T01:36:03;7.13;;;1.20;;
18752;SDS011;9505;50.882;5.350;2022-12-29T01:38:30;13.85;;;1.88;;
18752;SDS011;9505;50.882;5.350;2022-12-29T01:40:56;12.98;;;1.83;;
18752;SDS011;9505;50.882;5.350;2022-12-29T01:43:37;13.63;;;2.08;;
18752;SDS011;9505;50.882;5.350;2022-12-29T01:46:35;10.27;;;1.42;;
18752;SDS011;9505;50.882;5.350;2022-12-29T01:49:13;18.55;;;2.17;;
18752;SDS011;9505;50.882;5.350;2022-12-29T01:51:44;12.20;;;1.80;;
18752;SDS011;9505;50.882;5.350;2022-12-29T01:54:20;18.20;;;2.40;;
18752;SDS011;9505;50.882;5.350;2022-12-29T01:56:50;13.95;;;1.90;;
18752;SDS011;9505;50.882;5.350;2022-12-29T01:59:18;14.77;;;2.10;;
18752;SDS011;9505;50.882;5.350;2022-12-29T02:01:47;10.40;;;1.75;;
18752;SDS011;9505;50.882;5.350;2022-12-29T02:04:13;12.77;;;1.90;;
18752;SDS011;9505;50.882;5.350;2022-12-29T02:06:53;4.72;;;1.17;;
18752;SDS011;9505;50.882;5.350;2022-12-29T02:09:22;12.95;;;2.00;;
18752;SDS011;9505;50.882;5.350;2022-12-29T02:11:48;5.88;;;1.10;;
18752;SDS011;9505;50.882;5.350;2022-12-29T02:14:14;13.52;;;1.70;;
18752;SDS011;9505;50.882;5.350;2022-12-29T02:16:44;6.00;;;1.20;;
18752;SDS011;9505;50.882;5.350;2022-12-29T02:19:25;15.30;;;2.05;;
18752;SDS011;9505;50.882;5.350;2022-12-29T02:27:53;13.02;;;1.88;;
18752;SDS011;9505;50.882;5.350;2022-12-29T02:33:46;16.05;;;2.10;;
18752;SDS011;9505;50.882;5.350;2022-12-29T02:44:55;9.63;;;1.45;;
18752;SDS011;9505;50.882;5.350;2022-12-29T02:47:37;9.60;;;1.55;;
18752;SDS011;9505;50.882;5.350;2022-12-29T02:50:22;15.73;;;2.25;;
18752;SDS011;9505;50.882;5.350;2022-12-29T02:52:58;12.18;;;1.58;;
18752;SDS011;9505;50.882;5.350;2022-12-29T02:55:25;18.63;;;4.20;;
18752;SDS011;9505;50.882;5.350;2022-12-29T03:01:01;10.63;;;1.42;;
18752;SDS011;9505;50.882;5.350;2022-12-29T03:08:58;8.43;;;1.27;;
18752;SDS011;9505;50.882;5.350;2022-12-29T03:11:48;7.03;;;1.15;;
18752;SDS011;9505;50.882;5.350;2022-12-29T03:17:27;10.45;;;1.55;;
18752;SDS011;9505;50.882;5.350;2022-12-29T03:19:59;9.48;;;1.48;;
18752;SDS011;9505;50.882;5.350;2022-12-29T03:22:31;8.82;;;1.60;;
18752;SDS011;9505;50.882;5.350;2022-12-29T03:27:49;12.60;;;2.00;;
18752;SDS011;9505;50.882;5.350;2022-12-29T03:30:20;11.35;;;1.80;;
18752;SDS011;9505;50.882;5.350;2022-12-29T03:32:54;8.55;;;1.27;;
18752;SDS011;9505;50.882;5.350;2022-12-29T03:35:22;8.77;;;1.27;;
18752;SDS011;9505;50.882;5.350;2022-12-29T03:37:55;13.27;;;1.40;;
18752;SDS011;9505;50.882;5.350;2022-12-29T03:40:25;11.55;;;1.65;;
18752;SDS011;9505;50.882;5.350;2022-12-29T03:42:52;12.20;;;1.70;;
18752;SDS011;9505;50.882;5.350;2022-12-29T03:45:18;8.90;;;1.40;;
18752;SDS011;9505;50.882;5.350;2022-12-29T03:47:44;10.52;;;1.58;;
18752;SDS011;9505;50.882;5.350;2022-12-29T03:50:13;11.70;;;1.73;;
18752;SDS011;9505;50.882;5.350;2022-12-29T03:52:38;9.63;;;1.40;;
18752;SDS011;9505;50.882;5.350;2022-12-29T03:55:04;19.38;;;2.63;;
18752;SDS011;9505;50.882;5.350;2022-12-29T03:57:30;11.75;;;1.58;;
18752;SDS011;9505;50.882;5.350;2022-12-29T03:59:56;8.00;;;1.23;;
18752;SDS011;9505;50.882;5.350;2022-12-29T04:02:22;8.52;;;1.25;;
18752;SDS011;9505;50.882;5.350;2022-12-29T04:04:48;12.18;;;1.67;;
18752;SDS011;9505;50.882;5.350;2022-12-29T04:07:14;12.02;;;1.83;;
18752;SDS011;9505;50.882;5.350;2022-12-29T04:09:39;11.73;;;1.60;;
18752;SDS011;9505;50.882;5.350;2022-12-29T04:12:05;11.90;;;1.75;;
18752;SDS011;9505;50.882;5.350;2022-12-29T04:14:30;7.60;;;1.20;;
18752;SDS011;9505;50.882;5.350;2022-12-29T04:16:56;9.60;;;1.45;;
18752;SDS011;9505;50.882;5.350;2022-12-29T04:19:22;11.80;;;2.03;;
18752;SDS011;9505;50.882;5.350;2022-12-29T04:21:47;10.95;;;1.50;;
18752;SDS011;9505;50.882;5.350;2022-12-29T04:24:13;17.45;;;2.25;;
18752;SDS011;9505;50.882;5.350;2022-12-29T04:26:39;13.98;;;1.90;;
18752;SDS011;9505;50.882;5.350;2022-12-29T04:29:04;11.85;;;1.63;;
18752;SDS011;9505;50.882;5.350;2022-12-29T04:31:30;7.28;;;1.00;;
18752;SDS011;9505;50.882;5.350;2022-12-29T04:33:56;12.65;;;1.70;;
18752;SDS011;9505;50.882;5.350;2022-12-29T04:36:22;11.20;;;1.48;;
18752;SDS011;9505;50.882;5.350;2022-12-29T04:38:48;8.60;;;1.13;;
18752;SDS011;9505;50.882;5.350;2022-12-29T04:41:13;10.40;;;1.50;;
18752;SDS011;9505;50.882;5.350;2022-12-29T04:43:39;7.80;;;1.13;;
18752;SDS011;9505;50.882;5.350;2022-12-29T04:46:05;10.73;;;1.77;;
18752;SDS011;9505;50.882;5.350;2022-12-29T04:48:31;15.15;;;1.90;;
18752;SDS011;9505;50.882;5.350;2022-12-29T04:50:56;14.00;;;1.70;;
18752;SDS011;9505;50.882;5.350;2022-12-29T04:53:22;13.63;;;1.58;;
18752;SDS011;9505;50.882;5.350;2022-12-29T04:55:49;13.07;;;1.75;;
18752;SDS011;9505;50.882;5.350;2022-12-29T04:58:15;18.33;;;2.88;;
18752;SDS011;9505;50.882;5.350;2022-12-29T05:00:41;7.65;;;1.23;;
18752;SDS011;9505;50.882;5.350;2022-12-29T05:03:07;11.23;;;1.45;;
18752;SDS011;9505;50.882;5.350;2022-12-29T05:05:32;11.77;;;1.20;;
18752;SDS011;9505;50.882;5.350;2022-12-29T05:07:58;8.70;;;1.25;;
18752;SDS011;9505;50.882;5.350;2022-12-29T05:10:23;8.20;;;1.20;;
18752;SDS011;9505;50.882;5.350;2022-12-29T05:12:49;15.38;;;1.55;;
18752;SDS011;9505;50.882;5.350;2022-12-29T05:15:15;17.05;;;2.08;;
18752;SDS011;9505;50.882;5.350;2022-12-29T05:17:40;11.90;;;1.30;;
18752;SDS011;9505;50.882;5.350;2022-12-29T05:20:06;10.45;;;1.35;;
18752;SDS011;9505;50.882;5.350;2022-12-29T05:22:32;14.13;;;1.52;;
18752;SDS011;9505;50.882;5.350;2022-12-29T05:24:58;9.73;;;1.65;;
18752;SDS011;9505;50.882;5.350;2022-12-29T05:27:23;11.68;;;1.48;;
18752;SDS011;9505;50.882;5.350;2022-12-29T05:29:49;12.98;;;1.65;;
18752;SDS011;9505;50.882;5.350;2022-12-29T05:32:14;14.45;;;1.98;;
18752;SDS011;9505;50.882;5.350;2022-12-29T05:34:40;15.02;;;1.48;;
18752;SDS011;9505;50.882;5.350;2022-12-29T05:37:05;10.07;;;1.42;;
18752;SDS011;9505;50.882;5.350;2022-12-29T05:39:31;8.05;;;1.17;;
18752;SDS011;9505;50.882;5.350;2022-12-29T05:41:57;10.95;;;1.52;;
18752;SDS011;9505;50.882;5.350;2022-12-29T05:44:22;12.65;;;1.75;;
18752;SDS011;9505;50.882;5.350;2022-12-29T05:46:48;14.10;;;1.80;;
18752;SDS011;9505;50.882;5.350;2022-12-29T05:49:13;18.45;;;2.17;;
18752;SDS011;9505;50.882;5.350;2022-12-29T05:51:39;7.72;;;1.25;;
18752;SDS011;9505;50.882;5.350;2022-12-29T05:54:05;21.42;;;1.77;;
18752;SDS011;9505;50.882;5.350;2022-12-29T05:56:30;7.72;;;0.98;;
18752;SDS011;9505;50.882;5.350;2022-12-29T05:58:56;12.00;;;1.63;;
18752;SDS011;9505;50.882;5.350;2022-12-29T06:01:22;24.35;;;2.90;;
18752;SDS011;9505;50.882;5.350;2022-12-29T06:03:47;14.57;;;1.33;;
18752;SDS011;9505;50.882;5.350;2022-12-29T06:06:13;23.35;;;3.58;;
18752;SDS011;9505;50.882;5.350;2022-12-29T06:08:39;13.13;;;1.35;;
18752;SDS011;9505;50.882;5.350;2022-12-29T06:11:04;10.02;;;1.25;;
18752;SDS011;9505;50.882;5.350;2022-12-29T06:13:30;14.50;;;1.70;;
18752;SDS011;9505;50.882;5.350;2022-12-29T06:15:55;9.30;;;1.50;;
18752;SDS011;9505;50.882;5.350;2022-12-29T06:18:21;20.75;;;2.22;;
18752;SDS011;9505;50.882;5.350;2022-12-29T06:20:47;16.27;;;2.28;;
18752;SDS011;9505;50.882;5.350;2022-12-29T06:23:13;10.77;;;1.02;;
18752;SDS011;9505;50.882;5.350;2022-12-29T06:25:38;11.13;;;1.70;;
18752;SDS011;9505;50.882;5.350;2022-12-29T06:28:04;16.77;;;2.05;;
18752;SDS011;9505;50.882;5.350;2022-12-29T06:30:30;13.32;;;1.73;;
18752;SDS011;9505;50.882;5.350;2022-12-29T06:32:57;13.38;;;1.75;;
18752;SDS011;9505;50.882;5.350;2022-12-29T06:35:23;17.58;;;2.20;;
18752;SDS011;9505;50.882;5.350;2022-12-29T06:37:49;15.55;;;1.77;;
18752;SDS011;9505;50.882;5.350;2022-12-29T06:40:14;16.88;;;2.13;;
18752;SDS011;9505;50.882;5.350;2022-12-29T06:42:40;21.55;;;2.38;;
18752;SDS011;9505;50.882;5.350;2022-12-29T06:45:06;13.20;;;2.03;;
18752;SDS011;9505;50.882;5.350;2022-12-29T06:47:32;14.80;;;1.85;;
18752;SDS011;9505;50.882;5.350;2022-12-29T06:50:00;11.75;;;1.65;;
18752;SDS011;9505;50.882;5.350;2022-12-29T06:52:26;19.48;;;5.78;;
18752;SDS011;9505;50.882;5.350;2022-12-29T06:54:53;21.33;;;3.03;;
18752;SDS011;9505;50.882;5.350;2022-12-29T06:57:19;14.55;;;1.77;;
18752;SDS011;9505;50.882;5.350;2022-12-29T06:59:46;11.10;;;1.75;;
18752;SDS011;9505;50.882;5.350;2022-12-29T07:02:11;12.98;;;1.98;;
18752;SDS011;9505;50.882;5.350;2022-12-29T07:04:39;16.10;;;3.25;;
18752;SDS011;9505;50.882;5.350;2022-12-29T07:07:04;13.70;;;1.55;;
18752;SDS011;9505;50.882;5.350;2022-12-29T07:09:30;14.48;;;1.80;;
18752;SDS011;9505;50.882;5.350;2022-12-29T07:11:55;15.05;;;1.50;;
18752;SDS011;9505;50.882;5.350;2022-12-29T07:14:21;18.15;;;2.45;;
18752;SDS011;9505;50.882;5.350;2022-12-29T07:16:46;13.98;;;1.65;;
18752;SDS011;9505;50.882;5.350;2022-12-29T07:19:12;7.60;;;1.23;;
18752;SDS011;9505;50.882;5.350;2022-12-29T07:21:38;20.00;;;2.15;;
18752;SDS011;9505;50.882;5.350;2022-12-29T07:24:03;18.23;;;2.00;;
18752;SDS011;9505;50.882;5.350;2022-12-29T07:26:29;15.40;;;2.20;;
18752;SDS011;9505;50.882;5.350;2022-12-29T07:28:55;12.98;;;1.75;;
18752;SDS011;9505;50.882;5.350;2022-12-29T07:31:21;20.95;;;2.42;;
18752;SDS011;9505;50.882;5.350;2022-12-29T07:33:48;15.85;;;2.20;;
18752;SDS011;9505;50.882;5.350;2022-12-29T07:36:14;17.60;;;2.13;;
18752;SDS011;9505;50.882;5.350;2022-12-29T07:38:41;23.00;;;2.55;;
18752;SDS011;9505;50.882;5.350;2022-12-29T07:41:07;26.90;;;2.72;;
18752;SDS011;9505;50.882;5.350;2022-12-29T07:43:33;17.73;;;2.17;;
18752;SDS011;9505;50.882;5.350;2022-12-29T07:45:59;17.98;;;2.17;;
18752;SDS011;9505;50.882;5.350;2022-12-29T07:48:25;17.67;;;2.63;;
18752;SDS011;9505;50.882;5.350;2022-12-29T07:50:51;8.45;;;1.48;;
18752;SDS011;9505;50.882;5.350;2022-12-29T07:53:17;15.32;;;2.00;;
18752;SDS011;9505;50.882;5.350;2022-12-29T07:55:42;34.42;;;3.97;;
18752;SDS011;9505;50.882;5.350;2022-12-29T07:58:08;11.02;;;1.42;;
18752;SDS011;9505;50.882;5.350;2022-12-29T08:00:34;20.77;;;2.67;;
18752;SDS011;9505;50.882;5.350;2022-12-29T08:02:59;14.80;;;1.90;;
18752;SDS011;9505;50.882;5.350;2022-12-29T08:05:25;24.00;;;2.83;;
18752;SDS011;9505;50.882;5.350;2022-12-29T08:07:50;8.20;;;1.40;;
18752;SDS011;9505;50.882;5.350;2022-12-29T08:10:16;10.88;;;1.48;;
18752;SDS011;9505;50.882;5.350;2022-12-29T08:12:42;17.02;;;2.28;;
18752;SDS011;9505;50.882;5.350;2022-12-29T08:15:09;13.13;;;2.05;;
18752;SDS011;9505;50.882;5.350;2022-12-29T08:17:37;17.35;;;1.85;;
18752;SDS011;9505;50.882;5.350;2022-12-29T08:20:03;17.85;;;2.05;;
18752;SDS011;9505;50.882;5.350;2022-12-29T08:22:29;24.08;;;2.88;;
18752;SDS011;9505;50.882;5.350;2022-12-29T08:24:54;23.38;;;2.25;;
18752;SDS011;9505;50.882;5.350;2022-12-29T08:27:20;14.98;;;1.88;;
18752;SDS011;9505;50.882;5.350;2022-12-29T08:29:46;22.17;;;2.35;;
18752;SDS011;9505;50.882;5.350;2022-12-29T08:32:12;13.88;;;1.52;;
18752;SDS011;9505;50.882;5.350;2022-12-29T08:34:37;17.88;;;2.45;;
18752;SDS011;9505;50.882;5.350;2022-12-29T08:37:03;13.20;;;2.15;;
18752;SDS011;9505;50.882;5.350;2022-12-29T08:39:29;18.23;;;2.10;;
18752;SDS011;9505;50.882;5.350;2022-12-29T08:41:54;17.10;;;1.83;;
18752;SDS011;9505;50.882;5.350;2022-12-29T08:44:20;12.82;;;1.75;;
18752;SDS011;9505;50.882;5.350;2022-12-29T08:46:46;14.98;;;2.15;;
18752;SDS011;9505;50.882;5.350;2022-12-29T08:49:12;12.07;;;1.70;;
18752;SDS011;9505;50.882;5.350;2022-12-29T08:51:37;24.80;;;2.85;;
18752;SDS011;9505;50.882;5.350;2022-12-29T08:54:03;28.65;;;2.88;;
18752;SDS011;9505;50.882;5.350;2022-12-29T08:56:29;18.48;;;2.42;;
18752;SDS011;9505;50.882;5.350;2022-12-29T08:58:55;14.18;;;1.70;;
18752;SDS011;9505;50.882;5.350;2022-12-29T09:01:20;18.25;;;2.00;;
18752;SDS011;9505;50.882;5.350;2022-12-29T09:03:46;15.40;;;2.53;;
18752;SDS011;9505;50.882;5.350;2022-12-29T09:06:12;17.48;;;1.83;;
18752;SDS011;9505;50.882;5.350;2022-12-29T09:08:39;21.02;;;3.17;;
18752;SDS011;9505;50.882;5.350;2022-12-29T09:11:05;17.38;;;2.13;;
18752;SDS011;9505;50.882;5.350;2022-12-29T09:13:35;16.75;;;2.22;;
18752;SDS011;9505;50.882;5.350;2022-12-29T09:16:01;13.10;;;1.48;;
18752;SDS011;9505;50.882;5.350;2022-12-29T09:18:27;17.23;;;2.40;;
18752;SDS011;9505;50.882;5.350;2022-12-29T09:20:59;15.70;;;1.88;;
18752;SDS011;9505;50.882;5.350;2022-12-29T09:23:27;19.73;;;2.40;;
18752;SDS011;9505;50.882;5.350;2022-12-29T09:25:53;20.42;;;2.35;;
18752;SDS011;9505;50.882;5.350;2022-12-29T09:28:19;22.42;;;2.08;;
18752;SDS011;9505;50.882;5.350;2022-12-29T09:30:46;27.95;;;2.83;;
18752;SDS011;9505;50.882;5.350;2022-12-29T09:33:11;17.60;;;2.28;;
18752;SDS011;9505;50.882;5.350;2022-12-29T09:35:40;12.88;;;1.92;;
18752;SDS011;9505;50.882;5.350;2022-12-29T09:38:07;11.13;;;1.50;;
18752;SDS011;9505;50.882;5.350;2022-12-29T09:40:33;15.75;;;1.92;;
18752;SDS011;9505;50.882;5.350;2022-12-29T09:45:53;27.10;;;2.92;;
18752;SDS011;9505;50.882;5.350;2022-12-29T09:48:44;19.15;;;2.10;;
18752;SDS011;9505;50.882;5.350;2022-12-29T09:51:15;24.48;;;5.55;;
18752;SDS011;9505;50.882;5.350;2022-12-29T09:53:48;19.60;;;2.70;;
18752;SDS011;9505;50.882;5.350;2022-12-29T09:56:23;14.57;;;1.65;;
18752;SDS011;9505;50.882;5.350;2022-12-29T09:58:52;12.20;;;2.28;;
18752;SDS011;9505;50.882;5.350;2022-12-29T10:01:31;16.92;;;2.38;;
18752;SDS011;9505;50.882;5.350;2022-12-29T10:04:02;14.13;;;2.08;;
18752;SDS011;9505;50.882;5.350;2022-12-29T10:25:02;15.65;;;2.10;;
18752;SDS011;9505;50.882;5.350;2022-12-29T10:27:54;17.02;;;2.15;;
18752;SDS011;9505;50.882;5.350;2022-12-29T10:30:24;16.10;;;1.77;;
18752;SDS011;9505;50.882;5.350;2022-12-29T10:32:52;11.25;;;1.42;;
18752;SDS011;9505;50.882;5.350;2022-12-29T10:35:22;18.15;;;2.35;;
18752;SDS011;9505;50.882;5.350;2022-12-29T10:43:14;16.67;;;1.75;;
18752;SDS011;9505;50.882;5.350;2022-12-29T10:45:44;23.13;;;2.88;;
18752;SDS011;9505;50.882;5.350;2022-12-29T10:48:19;7.97;;;1.67;;
18752;SDS011;9505;50.882;5.350;2022-12-29T10:50:47;22.42;;;2.45;;
18752;SDS011;9505;50.882;5.350;2022-12-29T10:53:21;17.05;;;2.17;;
18752;SDS011;9505;50.882;5.350;2022-12-29T10:55:50;20.90;;;2.83;;
18752;SDS011;9505;50.882;5.350;2022-12-29T10:58:16;21.00;;;2.33;;
18752;SDS011;9505;50.882;5.350;2022-12-29T11:00:43;20.40;;;2.30;;
18752;SDS011;9505;50.882;5.350;2022-12-29T11:03:39;16.13;;;2.17;;
18752;SDS011;9505;50.882;5.350;2022-12-29T11:09:08;26.38;;;3.17;;
18752;SDS011;9505;50.882;5.350;2022-12-29T11:11:39;30.95;;;10.27;;
18752;SDS011;9505;50.882;5.350;2022-12-29T11:14:17;17.90;;;2.00;;
18752;SDS011;9505;50.882;5.350;2022-12-29T11:16:44;22.25;;;2.20;;
18752;SDS011;9505;50.882;5.350;2022-12-29T11:19:24;17.90;;;2.40;;
18752;SDS011;9505;50.882;5.350;2022-12-29T11:21:52;24.58;;;3.28;;
18752;SDS011;9505;50.882;5.350;2022-12-29T11:26:49;14.50;;;2.10;;
18752;SDS011;9505;50.882;5.350;2022-12-29T11:30:00;17.73;;;2.17;;
18752;SDS011;9505;50.882;5.350;2022-12-29T11:32:11;16.13;;;2.25;;
18752;SDS011;9505;50.882;5.350;2022-12-29T11:34:42;18.10;;;2.75;;
18752;SDS011;9505;50.882;5.350;2022-12-29T11:40:21;20.52;;;2.58;;
18752;SDS011;9505;50.882;5.350;2022-12-29T11:42:47;25.65;;;3.08;;
18752;SDS011;9505;50.882;5.350;2022-12-29T11:47:50;19.77;;;2.50;;
18752;SDS011;9505;50.882;5.350;2022-12-29T11:50:24;17.20;;;2.05;;
18752;SDS011;9505;50.882;5.350;2022-12-29T11:52:56;13.63;;;1.80;;
18752;SDS011;9505;50.882;5.350;2022-12-29T11:55:26;16.38;;;2.00;;
18752;SDS011;9505;50.882;5.350;2022-12-29T11:57:54;23.52;;;2.72;;
18752;SDS011;9505;50.882;5.350;2022-12-29T12:00:22;22.30;;;2.25;;
18752;SDS011;9505;50.882;5.350;2022-12-29T12:05:39;22.50;;;2.58;;
18752;SDS011;9505;50.882;5.350;2022-12-29T12:08:31;16.95;;;2.22;;
18752;SDS011;9505;50.882;5.350;2022-12-29T12:11:10;15.15;;;2.15;;
18752;SDS011;9505;50.882;5.350;2022-12-29T12:16:36;15.43;;;1.80;;
18752;SDS011;9505;50.882;5.350;2022-12-29T12:22:28;12.70;;;1.85;;
18752;SDS011;9505;50.882;5.350;2022-12-29T12:25:18;13.30;;;2.08;;
18752;SDS011;9505;50.882;5.350;2022-12-29T12:27:51;21.23;;;2.55;;
18752;SDS011;9505;50.882;5.350;2022-12-29T12:30:19;44.95;;;5.13;;
18752;SDS011;9505;50.882;5.350;2022-12-29T12:35:21;39.75;;;4.70;;
18752;SDS011;9505;50.882;5.350;2022-12-29T12:43:36;46.38;;;5.43;;
18752;SDS011;9505;50.882;5.350;2022-12-29T12:51:47;20.55;;;2.45;;
18752;SDS011;9505;50.882;5.350;2022-12-29T12:54:29;21.88;;;2.90;;
18752;SDS011;9505;50.882;5.350;2022-12-29T13:14:10;35.30;;;4.00;;
18752;SDS011;9505;50.882;5.350;2022-12-29T13:17:24;52.50;;;5.88;;
18752;SDS011;9505;50.882;5.350;2022-12-29T13:22:44;53.70;;;5.57;;
18752;SDS011;9505;50.882;5.350;2022-12-29T13:31:15;18.63;;;2.13;;
18752;SDS011;9505;50.882;5.350;2022-12-29T13:33:58;18.02;;;2.65;;
18752;SDS011;9505;50.882;5.350;2022-12-29T13:39:10;46.75;;;5.10;;
18752;SDS011;9505;50.882;5.350;2022-12-29T13:41:51;42.90;;;4.88;;
18752;SDS011;9505;50.882;5.350;2022-12-29T13:44:23;40.90;;;4.63;;
18752;SDS011;9505;50.882;5.350;2022-12-29T13:46:53;40.22;;;4.43;;
18752;SDS011;9505;50.882;5.350;2022-12-29T13:49:22;40.35;;;4.45;;
18752;SDS011;9505;50.882;5.350;2022-12-29T13:51:51;40.80;;;4.70;;
18752;SDS011;9505;50.882;5.350;2022-12-29T13:57:07;58.15;;;5.75;;
18752;SDS011;9505;50.882;5.350;2022-12-29T13:59:50;46.35;;;4.93;;
18752;SDS011;9505;50.882;5.350;2022-12-29T14:04:57;17.35;;;2.47;;
18752;SDS011;9505;50.882;5.350;2022-12-29T14:07:25;18.63;;;2.72;;
18752;SDS011;9505;50.882;5.350;2022-12-29T14:09:52;47.10;;;5.85;;
18752;SDS011;9505;50.882;5.350;2022-12-29T14:12:30;34.80;;;4.22;;
18752;SDS011;9505;50.882;5.350;2022-12-29T14:15:13;49.92;;;5.65;;
18752;SDS011;9505;50.882;5.350;2022-12-29T14:17:45;20.85;;;2.75;;
18752;SDS011;9505;50.882;5.350;2022-12-29T14:23:37;24.05;;;2.47;;
18752;SDS011;9505;50.882;5.350;2022-12-29T14:26:15;48.10;;;5.68;;
18752;SDS011;9505;50.882;5.350;2022-12-29T14:28:56;16.55;;;2.33;;
18752;SDS011;9505;50.882;5.350;2022-12-29T14:31:49;47.50;;;4.85;;
18752;SDS011;9505;50.882;5.350;2022-12-29T14:34:16;52.17;;;6.10;;
18752;SDS011;9505;50.882;5.350;2022-12-29T14:36:42;44.05;;;4.95;;
18752;SDS011;9505;50.882;5.350;2022-12-29T14:39:39;54.90;;;6.40;;
18752;SDS011;9505;50.882;5.350;2022-12-29T14:42:11;19.55;;;4.85;;
18752;SDS011;9505;50.882;5.350;2022-12-29T14:44:51;17.50;;;2.50;;
18752;SDS011;9505;50.882;5.350;2022-12-29T14:47:19;19.60;;;2.72;;
18752;SDS011;9505;50.882;5.350;2022-12-29T14:49:45;20.23;;;2.72;;
18752;SDS011;9505;50.882;5.350;2022-12-29T14:52:24;56.85;;;6.38;;
18752;SDS011;9505;50.882;5.350;2022-12-29T14:54:54;26.73;;;3.05;;
18752;SDS011;9505;50.882;5.350;2022-12-29T14:57:35;19.83;;;2.75;;
18752;SDS011;9505;50.882;5.350;2022-12-29T15:00:06;23.92;;;3.10;;
18752;SDS011;9505;50.882;5.350;2022-12-29T15:02:41;24.33;;;2.83;;
18752;SDS011;9505;50.882;5.350;2022-12-29T15:05:58;31.48;;;4.03;;
18752;SDS011;9505;50.882;5.350;2022-12-29T15:08:11;29.50;;;3.40;;
18752;SDS011;9505;50.882;5.350;2022-12-29T15:11:28;25.25;;;2.90;;
18752;SDS011;9505;50.882;5.350;2022-12-29T15:13:48;45.65;;;4.97;;
18752;SDS011;9505;50.882;5.350;2022-12-29T15:16:33;49.40;;;5.75;;
18752;SDS011;9505;50.882;5.350;2022-12-29T15:19:02;20.23;;;2.65;;
18752;SDS011;9505;50.882;5.350;2022-12-29T15:23:58;30.55;;;4.40;;
18752;SDS011;9505;50.882;5.350;2022-12-29T15:26:36;55.25;;;6.43;;
18752;SDS011;9505;50.882;5.350;2022-12-29T15:29:03;39.63;;;4.78;;
18752;SDS011;9505;50.882;5.350;2022-12-29T15:31:28;58.08;;;6.50;;
18752;SDS011;9505;50.882;5.350;2022-12-29T15:33:55;33.78;;;3.85;;
18752;SDS011;9505;50.882;5.350;2022-12-29T15:36:28;35.85;;;4.68;;
18752;SDS011;9505;50.882;5.350;2022-12-29T15:39:01;41.72;;;5.72;;
18752;SDS011;9505;50.882;5.350;2022-12-29T15:41:55;22.60;;;2.70;;
18752;SDS011;9505;50.882;5.350;2022-12-29T15:44:45;36.70;;;3.97;;
18752;SDS011;9505;50.882;5.350;2022-12-29T15:47:17;21.23;;;2.45;;
18752;SDS011;9505;50.882;5.350;2022-12-29T15:49:49;47.33;;;4.30;;
18752;SDS011;9505;50.882;5.350;2022-12-29T15:52:18;34.95;;;4.05;;
18752;SDS011;9505;50.882;5.350;2022-12-29T15:54:48;26.25;;;2.75;;
18752;SDS011;9505;50.882;5.350;2022-12-29T15:59:55;21.35;;;3.03;;
18752;SDS011;9505;50.882;5.350;2022-12-29T16:02:21;26.58;;;3.83;;
18752;SDS011;9505;50.882;5.350;2022-12-29T16:04:48;48.85;;;5.65;;
18752;SDS011;9505;50.882;5.350;2022-12-29T16:07:47;68.72;;;7.28;;
18752;SDS011;9505;50.882;5.350;2022-12-29T16:10:22;59.05;;;6.60;;
18752;SDS011;9505;50.882;5.350;2022-12-29T16:12:55;62.95;;;8.15;;
18752;SDS011;9505;50.882;5.350;2022-12-29T16:15:37;38.72;;;4.40;;
18752;SDS011;9505;50.882;5.350;2022-12-29T16:18:03;54.83;;;6.10;;
18752;SDS011;9505;50.882;5.350;2022-12-29T16:20:34;61.17;;;6.68;;
18752;SDS011;9505;50.882;5.350;2022-12-29T16:23:05;55.17;;;6.55;;
18752;SDS011;9505;50.882;5.350;2022-12-29T16:25:37;44.20;;;5.47;;
18752;SDS011;9505;50.882;5.350;2022-12-29T16:28:03;25.08;;;3.05;;
18752;SDS011;9505;50.882;5.350;2022-12-29T16:30:47;56.58;;;6.45;;
18752;SDS011;9505;50.882;5.350;2022-12-29T16:36:23;37.28;;;5.13;;
18752;SDS011;9505;50.882;5.350;2022-12-29T16:38:50;48.47;;;5.57;;
18752;SDS011;9505;50.882;5.350;2022-12-29T16:41:30;61.53;;;6.53;;
18752;SDS011;9505;50.882;5.350;2022-12-29T16:46:44;35.58;;;3.92;;
18752;SDS011;9505;50.882;5.350;2022-12-29T16:49:31;55.63;;;6.10;;
18752;SDS011;9505;50.882;5.350;2022-12-29T16:51:58;34.92;;;3.85;;
18752;SDS011;9505;50.882;5.350;2022-12-29T16:54:31;31.85;;;4.28;;
18752;SDS011;9505;50.882;5.350;2022-12-29T16:57:00;18.58;;;2.33;;
18752;SDS011;9505;50.882;5.350;2022-12-29T17:01:58;39.00;;;4.47;;
18752;SDS011;9505;50.882;5.350;2022-12-29T17:04:25;58.30;;;6.25;;
18752;SDS011;9505;50.882;5.350;2022-12-29T17:06:50;53.53;;;6.03;;
18752;SDS011;9505;50.882;5.350;2022-12-29T17:09:23;23.60;;;2.97;;
18752;SDS011;9505;50.882;5.350;2022-12-29T17:11:51;24.48;;;2.95;;
18752;SDS011;9505;50.882;5.350;2022-12-29T17:17:03;26.50;;;3.50;;
18752;SDS011;9505;50.882;5.350;2022-12-29T17:19:34;21.40;;;2.80;;
18752;SDS011;9505;50.882;5.350;2022-12-29T17:22:02;20.20;;;2.55;;
18752;SDS011;9505;50.882;5.350;2022-12-29T17:24:27;38.30;;;4.15;;
18752;SDS011;9505;50.882;5.350;2022-12-29T17:26:55;45.28;;;4.72;;
18752;SDS011;9505;50.882;5.350;2022-12-29T17:29:30;49.15;;;5.65;;
18752;SDS011;9505;50.882;5.350;2022-12-29T17:31:59;49.92;;;5.78;;
18752;SDS011;9505;50.882;5.350;2022-12-29T17:34:26;43.75;;;4.85;;
18752;SDS011;9505;50.882;5.350;2022-12-29T17:36:52;15.20;;;2.13;;
18752;SDS011;9505;50.882;5.350;2022-12-29T17:39:17;25.67;;;2.70;;